createdAt,value
2018-09-16T00:00:50.603Z,95799.86
2018-09-16T00:03:19.563Z,95803.54
2018-09-16T00:05:48.566Z,95801.69
2018-09-16T00:08:17.496Z,95793.73
2018-09-16T00:10:46.432Z,95786.80
2018-09-16T00:13:15.394Z,95787.91
2018-09-16T00:15:44.290Z,95788.79
2018-09-16T00:18:13.175Z,95780.28
2018-09-16T00:20:42.546Z,95788.33
2018-09-16T00:23:11.572Z,95783.23
2018-09-16T00:25:40.527Z,95789.05
2018-09-16T00:28:09.427Z,95788.73
2018-09-16T00:30:38.316Z,95787.57
2018-09-16T00:33:07.214Z,95786.08
2018-09-16T00:35:36.228Z,95791.70
2018-09-16T00:38:05.141Z,95789.05
2018-09-16T00:40:34.035Z,95786.19
2018-09-16T00:43:03.018Z,95790.89
2018-09-16T00:45:31.941Z,95788.37
2018-09-16T00:48:00.851Z,95793.46
2018-09-16T00:50:29.754Z,95794.86
2018-09-16T00:52:58.632Z,95795.36
2018-09-16T00:55:27.548Z,95794.63
2018-09-16T00:57:56.431Z,95790.53
2018-09-16T01:00:25.385Z,95795.23
2018-09-16T01:02:54.274Z,95792.67
2018-09-16T01:05:23.207Z,95795.32
2018-09-16T01:07:52.181Z,95786.89
2018-09-16T01:10:21.115Z,95790.98
2018-09-16T01:12:50.136Z,95785.74
2018-09-16T01:15:19.161Z,95787.59
2018-09-16T01:17:48.090Z,95784.94
2018-09-16T01:20:16.997Z,95778.89
2018-09-16T01:22:45.998Z,95780.18
2018-09-16T01:25:14.888Z,95778.19
2018-09-16T01:27:43.824Z,95780.94
2018-09-16T01:30:12.732Z,95774.84
2018-09-16T01:32:41.700Z,95784.68
2018-09-16T01:35:10.623Z,95786.30
2018-09-16T01:37:44.731Z,95781.96
2018-09-16T01:40:13.691Z,95780.33
2018-09-16T01:42:42.572Z,95780.86
2018-09-16T01:45:11.598Z,95786.85
2018-09-16T01:47:40.580Z,95790.75
2018-09-16T01:50:09.576Z,95796.06
2018-09-16T01:52:38.444Z,95799.74
2018-09-16T01:55:07.386Z,95793.64
2018-09-16T01:57:36.283Z,95797.43
2018-09-16T02:00:05.375Z,95788.95
2018-09-16T02:02:34.280Z,95792.22
2018-09-16T02:05:03.170Z,95796.92
2018-09-16T02:07:32.257Z,95796.93
2018-09-16T02:10:01.164Z,95798.90
2018-09-16T02:12:30.234Z,95799.50
2018-09-16T02:14:59.132Z,95803.99
2018-09-16T02:17:28.089Z,95808.06
2018-09-16T02:19:57.038Z,95806.50
2018-09-16T02:22:25.927Z,95806.66
2018-09-16T02:24:54.851Z,95809.31
2018-09-16T02:27:23.735Z,95819.35
2018-09-16T02:29:52.717Z,95819.43
2018-09-16T02:32:21.660Z,95816.22
2018-09-16T02:34:50.647Z,95821.21
2018-09-16T02:37:19.681Z,95813.58
2018-09-16T02:39:48.576Z,95822.20
2018-09-16T02:42:17.480Z,95824.48
2018-09-16T02:44:46.350Z,95827.77
2018-09-16T02:47:15.352Z,95827.56
2018-09-16T02:49:44.912Z,95827.61
2018-09-16T02:52:13.866Z,95832.53
2018-09-16T02:54:42.767Z,95831.10
2018-09-16T02:57:11.663Z,95821.84
2018-09-16T02:59:40.555Z,95824.41
2018-09-16T03:02:10.609Z,95828.66
2018-09-16T03:04:41.089Z,95829.75
2018-09-16T03:07:09.967Z,95824.56
2018-09-16T03:09:39.188Z,95832.20
2018-09-16T03:12:08.083Z,95832.28
2018-09-16T03:14:37.143Z,95826.06
2018-09-16T03:17:06.570Z,95826.69
2018-09-16T03:19:35.652Z,95834.55
2018-09-16T03:22:04.607Z,95827.73
2018-09-16T03:24:33.509Z,95830.49
2018-09-16T03:27:02.440Z,95835.90
2018-09-16T03:29:31.486Z,95832.94
2018-09-16T03:32:00.464Z,95833.63
2018-09-16T03:34:29.670Z,95834.03
2018-09-16T03:36:58.572Z,95833.64
2018-09-16T03:39:27.509Z,95830.79
2018-09-16T03:41:56.428Z,95836.71
2018-09-16T03:44:25.335Z,95829.51
2018-09-16T03:46:54.332Z,95823.86
2018-09-16T03:49:23.303Z,95831.94
2018-09-16T03:51:52.210Z,95828.51
2018-09-16T03:54:21.096Z,95834.73
2018-09-16T03:56:49.992Z,95840.13
2018-09-16T03:59:18.877Z,95839.19
2018-09-16T04:01:47.755Z,95840.74
2018-09-16T04:04:16.633Z,95841.20
2018-09-16T04:06:45.551Z,95839.49
2018-09-16T04:09:14.474Z,95842.20
2018-09-16T04:11:43.444Z,95840.89
2018-09-16T04:14:12.331Z,95839.57
2018-09-16T04:16:41.207Z,95840.03
2018-09-16T04:19:10.130Z,95843.36
2018-09-16T04:21:39.023Z,95838.95
2018-09-16T04:24:08.036Z,95838.84
2018-09-16T04:26:36.971Z,95848.14
2018-09-16T04:29:05.949Z,95853.06
2018-09-16T04:31:34.975Z,95851.48
2018-09-16T04:34:03.939Z,95857.11
2018-09-16T04:36:32.956Z,95850.83
2018-09-16T04:39:01.860Z,95854.73
2018-09-16T04:41:30.776Z,95848.00
2018-09-16T04:43:59.671Z,95853.92
2018-09-16T04:46:28.598Z,95860.80
2018-09-16T04:48:57.513Z,95853.00
2018-09-16T04:51:26.405Z,95852.73
2018-09-16T04:53:55.312Z,95862.22
2018-09-16T04:56:24.254Z,95867.42
2018-09-16T04:58:53.191Z,95867.64
2018-09-16T05:01:22.103Z,95862.20
2018-09-16T05:03:51.008Z,95879.15
2018-09-16T05:06:19.920Z,95876.06
2018-09-16T05:08:48.931Z,95878.48
2018-09-16T05:11:17.828Z,95880.23
2018-09-16T05:13:46.732Z,95876.47
2018-09-16T05:16:15.675Z,95871.71
2018-09-16T05:18:44.608Z,95867.34
2018-09-16T05:21:13.520Z,95881.45
2018-09-16T05:23:42.494Z,95879.56
2018-09-16T05:26:11.476Z,95881.65
2018-09-16T05:28:40.393Z,95882.81
2018-09-16T05:31:09.384Z,95893.28
2018-09-16T05:33:38.328Z,95885.19
2018-09-16T05:36:07.316Z,95895.11
2018-09-16T05:38:36.202Z,95892.53
2018-09-16T05:41:05.195Z,95893.59
2018-09-16T05:43:34.086Z,95895.94
2018-09-16T05:48:30.824Z,95891.11
2018-09-16T05:50:59.716Z,95901.98
2018-09-16T05:53:28.724Z,95899.95
2018-09-16T05:55:57.578Z,95898.68
2018-09-16T05:58:26.493Z,95888.84
2018-09-16T06:00:55.382Z,95887.63
2018-09-16T06:03:24.274Z,95894.81
2018-09-16T06:05:53.171Z,95893.28
2018-09-16T06:08:22.116Z,95883.56
2018-09-16T06:10:51.095Z,95889.34
2018-09-16T06:13:19.952Z,95885.42
2018-09-16T06:15:48.911Z,95879.66
2018-09-16T06:18:17.871Z,95888.69
2018-09-16T06:20:46.759Z,95890.30
2018-09-16T06:23:15.651Z,95885.63
2018-09-16T06:25:44.665Z,95896.38
2018-09-16T06:28:13.542Z,95899.33
2018-09-16T06:30:42.503Z,95898.52
2018-09-16T06:33:11.400Z,95904.20
2018-09-16T06:35:40.283Z,95901.72
2018-09-16T06:38:09.178Z,95903.86
2018-09-16T06:40:38.088Z,95896.17
2018-09-16T06:43:07.096Z,95906.78
2018-09-16T06:45:36.772Z,95903.92
2018-09-16T06:48:05.731Z,95902.94
2018-09-16T06:50:34.700Z,95905.72
2018-09-16T06:53:03.701Z,95907.63
2018-09-16T06:55:32.707Z,95908.80
2018-09-16T06:58:01.570Z,95899.13
2018-09-16T07:00:30.472Z,95885.84
2018-09-16T07:02:59.426Z,95901.11
2018-09-16T07:05:28.310Z,95908.56
2018-09-16T07:07:57.260Z,95901.53
2018-09-16T07:10:26.182Z,95912.94
2018-09-16T07:12:55.083Z,95905.52
2018-09-16T07:15:24.052Z,95917.92
2018-09-16T07:17:52.967Z,95917.10
2018-09-16T07:20:21.849Z,95893.76
2018-09-16T07:22:50.768Z,95917.93
2018-09-16T07:25:19.660Z,95898.02
2018-09-16T07:27:48.567Z,95898.53
2018-09-16T07:30:17.459Z,95895.39
2018-09-16T07:32:46.427Z,95893.33
2018-09-16T07:35:15.323Z,95891.49
2018-09-16T07:37:44.208Z,95911.56
2018-09-16T07:40:13.117Z,95900.22
2018-09-16T07:42:42.042Z,95905.53
2018-09-16T07:45:10.976Z,95912.53
2018-09-16T07:47:39.860Z,95899.00
2018-09-16T07:50:08.975Z,95901.34
2018-09-16T07:52:37.868Z,95896.85
2018-09-16T07:55:06.860Z,95910.65
2018-09-16T07:57:35.734Z,95910.78
2018-09-16T08:00:04.754Z,95901.67
2018-09-16T08:02:33.635Z,95914.53
2018-09-16T08:05:02.687Z,95916.14
2018-09-16T08:07:31.618Z,95918.05
2018-09-16T08:10:00.503Z,95912.94
2018-09-16T08:12:29.415Z,95919.93
2018-09-16T08:14:58.296Z,95908.27
2018-09-16T08:17:27.180Z,95913.45
2018-09-16T08:19:56.064Z,95915.23
2018-09-16T08:22:25.008Z,95916.84
2018-09-16T08:24:53.939Z,95897.02
2018-09-16T08:27:22.886Z,95912.81
2018-09-16T08:29:51.794Z,95910.14
2018-09-16T08:32:20.669Z,95913.06
2018-09-16T08:34:49.563Z,95919.77
2018-09-16T08:37:18.491Z,95900.27
2018-09-16T08:39:47.384Z,95895.51
2018-09-16T08:42:16.267Z,95898.50
2018-09-16T08:44:45.206Z,95903.95
2018-09-16T08:47:14.080Z,95897.77
2018-09-16T08:49:42.963Z,95887.31
2018-09-16T08:52:11.885Z,95893.19
2018-09-16T08:54:40.788Z,95882.49
2018-09-16T08:57:09.664Z,95880.73
2018-09-16T08:59:38.564Z,95884.13
2018-09-16T09:02:07.767Z,95868.53
2018-09-16T09:04:36.720Z,95870.75
2018-09-16T09:07:05.693Z,95882.28
2018-09-16T09:09:34.569Z,95877.98
2018-09-16T09:12:03.470Z,95876.06
2018-09-16T09:14:32.378Z,95874.64
2018-09-16T09:17:01.260Z,95854.30
2018-09-16T09:19:30.161Z,95872.41
2018-09-16T09:21:59.028Z,95865.95
2018-09-16T09:24:27.936Z,95865.76
2018-09-16T09:26:56.809Z,95867.81
2018-09-16T09:29:25.779Z,95862.80
2018-09-16T09:31:54.655Z,95859.83
2018-09-16T09:34:23.543Z,95855.14
2018-09-16T09:36:52.503Z,95864.52
2018-09-16T09:39:21.386Z,95865.76
2018-09-16T09:41:50.288Z,95854.31
2018-09-16T09:44:19.274Z,95865.24
2018-09-16T09:46:48.159Z,95854.31
2018-09-16T09:49:17.047Z,95859.21
2018-09-16T09:51:46.005Z,95854.91
2018-09-16T09:54:14.884Z,95855.21
2018-09-16T09:56:43.782Z,95857.91
2018-09-16T09:59:12.691Z,95849.83
2018-09-16T10:01:41.632Z,95856.45
2018-09-16T10:04:10.590Z,95852.33
2018-09-16T10:06:39.498Z,95856.16
2018-09-16T10:09:10.210Z,95852.55
2018-09-16T10:11:39.210Z,95858.12
2018-09-16T10:14:08.439Z,95856.88
2018-09-16T10:16:37.363Z,95854.95
2018-09-16T10:19:06.278Z,95848.64
2018-09-16T10:21:35.167Z,95861.05
2018-09-16T10:24:04.074Z,95860.91
2018-09-16T10:26:32.999Z,95856.30
2018-09-16T10:29:01.889Z,95849.80
2018-09-16T10:31:30.796Z,95841.39
2018-09-16T10:33:59.671Z,95843.38
2018-09-16T10:36:28.655Z,95839.03
2018-09-16T10:38:57.597Z,95845.06
2018-09-16T10:41:26.459Z,95844.28
2018-09-16T10:43:55.343Z,95850.64
2018-09-16T10:46:24.227Z,95847.39
2018-09-16T10:48:53.120Z,95845.80
2018-09-16T10:51:22.092Z,95840.04
2018-09-16T10:53:51.011Z,95838.31
2018-09-16T10:56:19.908Z,95839.42
2018-09-16T10:58:48.815Z,95836.64
2018-09-16T11:01:17.720Z,95841.25
2018-09-16T11:03:46.708Z,95835.23
2018-09-16T11:06:15.588Z,95829.61
2018-09-16T11:08:44.509Z,95833.80
2018-09-16T11:11:13.707Z,95837.92
2018-09-16T11:13:42.592Z,95830.67
2018-09-16T11:16:11.506Z,95837.25
2018-09-16T11:18:40.467Z,95833.98
2018-09-16T11:21:09.384Z,95837.44
2018-09-16T11:23:38.269Z,95837.50
2018-09-16T11:26:07.251Z,95838.91
2018-09-16T11:28:36.153Z,95838.59
2018-09-16T11:31:05.076Z,95841.08
2018-09-16T11:33:33.983Z,95836.42
2018-09-16T11:36:02.897Z,95833.67
2018-09-16T11:38:31.905Z,95829.59
2018-09-16T11:41:00.834Z,95829.23
2018-09-16T11:43:29.735Z,95829.93
2018-09-16T11:45:58.628Z,95832.41
2018-09-16T11:48:27.793Z,95832.98
2018-09-16T11:50:56.724Z,95830.77
2018-09-16T11:53:25.610Z,95831.94
2018-09-16T11:55:54.594Z,95821.94
2018-09-16T11:58:23.516Z,95826.31
2018-09-16T12:00:52.523Z,95824.30
2018-09-16T12:03:21.419Z,95828.70
2018-09-16T12:05:50.411Z,95827.98
2018-09-16T12:08:19.306Z,95828.87
2018-09-16T12:10:48.216Z,95822.26
2018-09-16T12:13:17.141Z,95816.37
2018-09-16T12:15:46.076Z,95818.68
2018-09-16T12:18:14.986Z,95818.27
2018-09-16T12:20:44.030Z,95813.65
2018-09-16T12:23:12.995Z,95808.20
2018-09-16T12:25:41.886Z,95809.47
2018-09-16T12:28:10.867Z,95807.34
2018-09-16T12:30:39.763Z,95804.72
2018-09-16T12:33:08.685Z,95809.76
2018-09-16T12:35:37.788Z,95809.23
2018-09-16T12:38:06.774Z,95813.11
2018-09-16T12:40:35.959Z,95807.81
2018-09-16T12:43:04.946Z,95804.56
2018-09-16T12:45:33.868Z,95801.25
2018-09-16T12:48:02.771Z,95795.63
2018-09-16T12:50:31.930Z,95802.20
2018-09-16T12:53:00.811Z,95796.67
2018-09-16T12:55:29.822Z,95793.66
2018-09-16T12:57:58.753Z,95788.71
2018-09-16T13:00:27.656Z,95790.00
2018-09-16T13:02:56.579Z,95788.59
2018-09-16T13:05:25.484Z,95790.16
2018-09-16T13:07:54.375Z,95793.70
2018-09-16T13:10:23.265Z,95796.83
2018-09-16T13:12:52.219Z,95786.08
2018-09-16T13:15:21.175Z,95784.75
2018-09-16T13:17:50.068Z,95785.45
2018-09-16T13:20:19.445Z,95781.14
2018-09-16T13:22:48.644Z,95778.03
2018-09-16T13:25:17.604Z,95780.18
2018-09-16T13:27:46.507Z,95776.94
2018-09-16T13:30:15.432Z,95779.02
2018-09-16T13:32:44.338Z,95788.64
2018-09-16T13:35:13.284Z,95784.34
2018-09-16T13:37:42.205Z,95781.45
2018-09-16T13:40:11.320Z,95778.36
2018-09-16T13:42:40.210Z,95778.37
2018-09-16T13:45:09.112Z,95780.43
2018-09-16T13:47:38.013Z,95773.13
2018-09-16T13:50:07.389Z,95769.97
2018-09-16T13:52:36.352Z,95768.38
2018-09-16T13:55:05.349Z,95778.30
2018-09-16T13:57:34.620Z,95766.83
2018-09-16T14:00:04.969Z,95770.00
2018-09-16T14:02:34.028Z,95782.30
2018-09-16T14:05:03.044Z,95782.38
2018-09-16T14:07:32.235Z,95786.44
2018-09-16T14:10:01.284Z,95786.28
2018-09-16T14:12:30.168Z,95776.78
2018-09-16T14:14:59.106Z,95783.63
2018-09-16T14:17:28.008Z,95782.56
2018-09-16T14:19:57.009Z,95787.47
2018-09-16T14:22:25.960Z,95785.84
2018-09-16T14:24:54.855Z,95780.19
2018-09-16T14:27:23.756Z,95779.42
2018-09-16T14:29:52.704Z,95788.75
2018-09-16T14:32:22.171Z,95787.41
2018-09-16T14:34:51.137Z,95788.97
2018-09-16T14:37:20.123Z,95791.91
2018-09-16T14:39:49.031Z,95791.92
2018-09-16T14:42:17.937Z,95796.91
2018-09-16T14:44:46.841Z,95791.41
2018-09-16T14:47:15.762Z,95796.16
2018-09-16T14:49:44.669Z,95792.74
2018-09-16T14:52:13.592Z,95786.17
2018-09-16T14:54:42.590Z,95783.22
2018-09-16T14:57:11.526Z,95783.87
2018-09-16T14:59:40.431Z,95780.91
2018-09-16T15:02:09.432Z,95782.80
2018-09-16T15:04:38.326Z,95784.69
2018-09-16T15:07:07.480Z,95788.97
2018-09-16T15:09:36.524Z,95784.52
2018-09-16T15:12:05.447Z,95793.27
2018-09-16T15:14:34.348Z,95795.64
2018-09-16T15:17:03.312Z,95794.59
2018-09-16T15:19:32.391Z,95792.28
2018-09-16T15:22:01.285Z,95796.08
2018-09-16T15:24:30.167Z,95790.06
2018-09-16T15:26:59.123Z,95795.45
2018-09-16T15:29:27.992Z,95802.11
2018-09-16T15:31:56.904Z,95804.60
2018-09-16T15:34:25.804Z,95800.97
2018-09-16T15:36:54.967Z,95801.47
2018-09-16T15:39:23.991Z,95808.03
2018-09-16T15:41:52.983Z,95819.27
2018-09-16T15:44:21.869Z,95810.00
2018-09-16T15:46:50.764Z,95810.66
2018-09-16T15:49:19.665Z,95809.15
2018-09-16T15:51:48.588Z,95818.65
2018-09-16T15:54:17.536Z,95811.53
2018-09-16T15:56:46.470Z,95810.30
2018-09-16T15:59:15.369Z,95820.39
2018-09-16T16:01:45.192Z,95818.88
2018-09-16T16:04:14.096Z,95826.62
2018-09-16T16:06:42.997Z,95828.14
2018-09-16T16:09:12.547Z,95829.88
2018-09-16T16:11:41.756Z,95833.59
2018-09-16T16:14:10.656Z,95838.48
2018-09-16T16:16:39.695Z,95832.31
2018-09-16T16:19:08.599Z,95833.56
2018-09-16T16:21:37.557Z,95839.28
2018-09-16T16:24:06.665Z,95836.55
2018-09-16T16:26:35.589Z,95837.03
2018-09-16T16:29:04.525Z,95830.41
2018-09-16T16:31:33.559Z,95836.92
2018-09-16T16:34:02.523Z,95833.47
2018-09-16T16:36:31.476Z,95831.55
2018-09-16T16:39:00.379Z,95828.89
2018-09-16T16:41:29.274Z,95833.58
2018-09-16T16:43:58.164Z,95832.06
2018-09-16T16:46:27.115Z,95834.05
2018-09-16T16:48:56.000Z,95837.13
2018-09-16T16:51:24.888Z,95838.75
2018-09-16T16:53:53.795Z,95837.83
2018-09-16T16:56:22.672Z,95840.48
2018-09-16T16:58:51.598Z,95841.45
2018-09-16T17:01:20.552Z,95843.36
2018-09-16T17:03:49.414Z,95852.67
2018-09-16T17:06:18.304Z,95846.95
2018-09-16T17:08:47.350Z,95852.56
2018-09-16T17:11:16.336Z,95855.94
2018-09-16T17:13:45.255Z,95860.11
2018-09-16T17:16:14.413Z,95862.16
2018-09-16T17:18:43.324Z,95869.81
2018-09-16T17:21:12.279Z,95877.59
2018-09-16T17:23:41.254Z,95875.52
2018-09-16T17:26:10.232Z,95879.00
2018-09-16T17:28:39.132Z,95889.44
2018-09-16T17:31:08.086Z,95889.36
2018-09-16T17:33:37.028Z,95892.41
2018-09-16T17:36:05.959Z,95894.20
2018-09-16T17:38:34.945Z,95896.53
2018-09-16T17:41:03.805Z,95899.59
2018-09-16T17:43:32.755Z,95911.23
2018-09-16T17:46:01.769Z,95913.89
2018-09-16T17:48:30.732Z,95906.13
2018-09-16T17:50:59.776Z,95915.03
2018-09-16T17:53:28.617Z,95922.72
2018-09-16T17:55:57.512Z,95922.17
2018-09-16T17:58:26.392Z,95918.48
2018-09-16T18:00:55.310Z,95929.75
2018-09-16T18:03:24.208Z,95929.53
2018-09-16T18:05:53.117Z,95938.84
2018-09-16T18:08:52.616Z,95938.41
2018-09-16T18:11:21.578Z,95945.81
2018-09-16T18:13:50.472Z,95956.14
2018-09-16T18:16:19.371Z,95958.17
2018-09-16T18:18:48.280Z,95961.46
2018-09-16T18:21:17.466Z,95960.43
2018-09-16T18:23:46.455Z,95964.12
2018-09-16T18:26:15.429Z,95967.59
2018-09-16T18:28:44.342Z,95967.98
2018-09-16T18:31:13.241Z,95962.79
2018-09-16T18:33:42.209Z,95960.61
2018-09-16T18:36:11.128Z,95962.97
2018-09-16T18:38:40.064Z,95970.55
2018-09-16T18:41:09.008Z,95970.34
2018-09-16T18:43:37.887Z,95972.78
2018-09-16T18:46:06.807Z,95973.77
2018-09-16T18:48:35.732Z,95982.23
2018-09-16T18:51:04.639Z,95975.90
2018-09-16T18:53:33.516Z,95976.92
2018-09-16T18:56:03.052Z,95976.49
2018-09-16T18:58:31.959Z,95980.77
2018-09-16T19:01:00.839Z,95975.23
2018-09-16T19:03:29.749Z,95979.81
2018-09-16T19:06:00.045Z,95977.06
2018-09-16T19:08:35.584Z,95979.48
2018-09-16T19:11:05.290Z,95976.20
2018-09-16T19:13:34.267Z,95983.42
2018-09-16T19:16:03.168Z,95978.80
2018-09-16T19:18:32.161Z,95981.58
2018-09-16T19:21:01.019Z,95980.97
2018-09-16T19:23:29.908Z,95978.49
2018-09-16T19:25:58.800Z,95984.91
2018-09-16T19:28:27.760Z,95982.66
2018-09-16T19:30:56.695Z,95983.04
2018-09-16T19:33:25.590Z,95976.10
2018-09-16T19:35:54.488Z,95981.41
2018-09-16T19:38:23.372Z,95984.37
2018-09-16T19:40:52.433Z,95978.24
2018-09-16T19:43:21.332Z,95982.95
2018-09-16T19:45:50.233Z,95979.75
2018-09-16T19:48:19.128Z,95981.38
2018-09-16T19:50:48.018Z,95978.88
2018-09-16T19:53:16.940Z,95976.56
2018-09-16T19:55:45.847Z,95977.25
2018-09-16T19:58:14.743Z,95978.17
2018-09-16T20:00:43.617Z,95972.45
2018-09-16T20:03:12.616Z,95977.05
2018-09-16T20:05:41.508Z,95981.36
2018-09-16T20:08:10.413Z,95979.52
2018-09-16T20:10:39.379Z,95976.94
2018-09-16T20:13:08.344Z,95978.98
2018-09-16T20:15:37.372Z,95981.81
2018-09-16T20:18:06.342Z,95977.49
2018-09-16T20:20:35.291Z,95977.30
2018-09-16T20:23:04.196Z,95981.56
2018-09-16T20:25:33.174Z,95983.45
2018-09-16T20:28:02.094Z,95985.15
2018-09-16T20:30:30.996Z,95990.36
2018-09-16T20:33:00.002Z,95991.88
2018-09-16T20:35:28.974Z,95991.68
2018-09-16T20:37:57.884Z,95989.94
2018-09-16T20:40:26.851Z,95983.72
2018-09-16T20:42:55.831Z,95992.94
2018-09-16T20:45:24.699Z,95991.00
2018-09-16T20:47:53.664Z,95992.97
2018-09-16T20:50:22.596Z,95993.23
2018-09-16T20:52:51.487Z,95990.98
2018-09-16T20:55:20.440Z,95998.32
2018-09-16T20:57:49.511Z,95999.71
2018-09-16T21:00:18.415Z,96001.08
2018-09-16T21:02:47.403Z,96000.66
2018-09-16T21:05:16.426Z,95995.26
2018-09-16T21:07:45.360Z,96004.48
2018-09-16T21:10:14.437Z,96005.85
2018-09-16T21:12:43.316Z,96009.31
2018-09-16T21:15:12.257Z,96009.94
2018-09-16T21:17:41.179Z,96005.03
2018-09-16T21:20:10.136Z,96000.95
2018-09-16T21:22:39.035Z,96002.73
2018-09-16T21:25:08.040Z,96010.48
2018-09-16T21:27:36.973Z,96003.18
2018-09-16T21:30:05.988Z,96011.04
2018-09-16T21:32:34.936Z,96008.08
2018-09-16T21:35:03.881Z,96010.17
2018-09-16T21:37:32.873Z,96009.56
2018-09-16T21:40:01.761Z,96009.93
2018-09-16T21:42:30.663Z,96002.08
2018-09-16T21:44:59.621Z,96005.66
2018-09-16T21:47:28.582Z,96005.91
2018-09-16T21:49:57.488Z,96010.84
2018-09-16T21:52:26.374Z,96014.73
2018-09-16T21:54:55.333Z,96008.45
2018-09-16T21:57:24.284Z,95998.84
2018-09-16T21:59:53.184Z,95994.75
2018-09-16T22:02:22.091Z,95993.28
2018-09-16T22:04:51.077Z,95992.30
2018-09-16T22:07:19.952Z,95995.31
2018-09-16T22:09:48.856Z,95991.14
2018-09-16T22:12:17.794Z,95997.91
2018-09-16T22:14:46.683Z,96006.42
2018-09-16T22:17:15.623Z,96004.02
2018-09-16T22:19:44.507Z,96006.75
2018-09-16T22:22:13.452Z,95999.91
2018-09-16T22:24:42.370Z,96002.49
2018-09-16T22:27:11.260Z,96001.84
2018-09-16T22:29:40.182Z,96000.01
2018-09-16T22:32:09.172Z,95997.87
2018-09-16T22:34:38.142Z,96000.86
2018-09-16T22:37:07.046Z,96002.84
2018-09-16T22:39:35.939Z,96001.53
2018-09-16T22:42:04.955Z,96006.36
2018-09-16T22:44:33.908Z,96008.82
2018-09-16T22:47:02.824Z,96011.70
2018-09-16T22:49:31.820Z,96009.79
2018-09-16T22:52:00.717Z,96009.67
2018-09-16T22:54:29.618Z,96008.34
2018-09-16T22:56:58.633Z,96010.48
2018-09-16T22:59:27.570Z,96003.76
2018-09-16T23:01:56.486Z,96004.14
2018-09-16T23:04:25.422Z,96007.17
2018-09-16T23:06:54.374Z,96001.41
2018-09-16T23:09:23.273Z,95998.18
2018-09-16T23:11:52.293Z,95997.58
2018-09-16T23:14:21.167Z,95999.26
2018-09-16T23:16:50.088Z,95996.80
2018-09-16T23:19:19.067Z,95998.66
2018-09-16T23:21:48.531Z,95997.84
2018-09-16T23:24:18.195Z,95997.75
2018-09-16T23:26:47.113Z,95995.27
2018-09-16T23:29:17.243Z,96002.16
2018-09-16T23:31:46.183Z,96004.17
2018-09-16T23:34:15.091Z,96003.16
2018-09-16T23:36:44.095Z,96003.95
2018-09-16T23:39:12.975Z,96004.86
2018-09-16T23:41:41.953Z,96006.45
2018-09-16T23:44:10.884Z,96016.64
2018-09-16T23:46:39.828Z,96011.75
2018-09-16T23:49:08.751Z,96008.16
2018-09-16T23:51:37.644Z,96010.03
2018-09-16T23:54:08.100Z,96014.04
2018-09-16T23:56:36.984Z,96016.04
2018-09-16T23:59:05.941Z,96017.86
